Time;durP1;ratioP1;P1;durP2;ratioP2;P2;SDS_P1;SDS_P2;PMS_P1;PMS_P2;Temp;Humidity;BMP_temperature;BMP_pressure;BME280_temperature;BME280_humidity;BME280_pressure;Samples;Min_cycle;Max_cycle;Signal;HPM_P1;HPM_P2
2022/05/05 00:02:21;;;;;;;14.80;6.63;;;7.50;99.90;;;;;;5031248;28;20040;-83
2022/05/05 00:04:47;;;;;;;14.73;6.38;;;7.90;99.90;;;;;;5043651;28;20046;-82
2022/05/05 00:07:13;;;;;;;13.30;6.32;;;7.10;99.90;;;;;;5043825;28;20047;-83
2022/05/05 00:09:38;;;;;;;13.25;5.97;;;7.40;99.90;;;;;;5020694;28;20595;-83
2022/05/05 00:14:49;;;;;;;11.73;5.63;;;7.00;99.90;;;;;;5054316;28;20131;-83
2022/05/05 00:17:14;;;;;;;13.85;6.18;;;7.00;99.90;;;;;;5030662;28;20482;-83
2022/05/05 00:19:42;;;;;;;13.15;5.97;;;7.00;99.90;;;;;;5043593;28;20055;-83
2022/05/05 00:22:08;;;;;;;13.45;6.38;;;7.00;99.90;;;;;;5057708;28;20106;-83
2022/05/05 00:24:34;;;;;;;15.85;6.72;;;7.00;99.90;;;;;;5028579;28;20029;-83
2022/05/05 00:27:00;;;;;;;14.02;6.03;;;7.00;99.90;;;;;;5056778;28;20044;-83
2022/05/05 00:29:26;;;;;;;13.52;6.10;;;7.00;99.90;;;;;;5047359;28;20492;-83
2022/05/05 00:31:52;;;;;;;12.27;5.72;;;7.00;99.90;;;;;;5027945;28;20054;-83
2022/05/05 00:34:18;;;;;;;13.90;6.03;;;7.00;99.90;;;;;;5032592;28;20509;-83
2022/05/05 00:36:44;;;;;;;12.98;6.25;;;7.00;99.90;;;;;;5035536;28;20029;-83
2022/05/05 00:39:13;;;;;;;13.50;5.80;;;7.00;99.90;;;;;;5056087;28;20096;-83
2022/05/05 00:41:43;;;;;;;14.48;6.32;;;7.50;99.90;;;;;;5038776;28;20051;-83
2022/05/05 00:44:10;;;;;;;14.70;6.32;;;7.50;99.90;;;;;;5047577;28;20079;-83
2022/05/05 00:46:36;;;;;;;11.60;5.97;;;7.00;99.90;;;;;;5048898;28;20044;-83
2022/05/05 00:49:02;;;;;;;14.38;5.90;;;7.70;99.90;;;;;;5039010;28;20041;-83
2022/05/05 00:51:28;;;;;;;13.60;6.45;;;8.00;99.90;;;;;;5048507;28;20066;-82
2022/05/05 00:53:54;;;;;;;15.48;6.40;;;6.90;99.90;;;;;;5021176;28;20039;-82
2022/05/05 00:56:22;;;;;;;11.93;5.68;;;6.90;99.90;;;;;;5054680;28;20565;-82
2022/05/05 00:58:48;;;;;;;12.40;5.90;;;6.90;99.90;;;;;;5036528;28;20033;-83
2022/05/05 01:01:21;;;;;;;13.48;5.75;;;6.90;99.90;;;;;;5023320;28;20041;-82
2022/05/05 01:03:48;;;;;;;12.02;5.65;;;6.90;99.90;;;;;;5059684;28;20039;-83
2022/05/05 01:06:17;;;;;;;11.93;5.95;;;6.90;99.90;;;;;;5027911;28;20534;-83
2022/05/05 01:08:44;;;;;;;13.52;6.45;;;6.90;99.90;;;;;;5045326;28;20441;-83
2022/05/05 01:11:10;;;;;;;14.20;6.22;;;6.90;99.90;;;;;;5038306;28;20147;-83
2022/05/05 01:13:41;;;;;;;13.77;6.13;;;7.20;99.90;;;;;;5027046;28;20132;-83
2022/05/05 01:16:09;;;;;;;14.23;6.63;;;7.00;99.90;;;;;;5036005;28;20401;-83
2022/05/05 01:18:35;;;;;;;12.00;6.40;;;7.60;99.90;;;;;;5054213;28;20040;-83
2022/05/05 01:21:01;;;;;;;12.57;5.80;;;7.00;99.90;;;;;;5047932;28;20533;-82
2022/05/05 01:23:27;;;;;;;17.00;6.18;;;8.20;99.90;;;;;;5030814;28;20115;-83
2022/05/05 01:28:44;;;;;;;15.45;6.63;;;7.00;99.90;;;;;;5055300;28;20045;-83
2022/05/05 01:31:10;;;;;;;12.65;6.28;;;7.00;99.90;;;;;;5046907;28;20032;-82
2022/05/05 01:33:36;;;;;;;14.88;6.68;;;7.00;99.90;;;;;;5039483;28;20063;-81
2022/05/05 01:36:03;;;;;;;13.98;6.65;;;7.00;99.90;;;;;;5047520;28;20561;-81
2022/05/05 01:38:36;;;;;;;12.48;6.50;;;7.10;99.90;;;;;;5037591;28;20056;-82
2022/05/05 01:41:10;;;;;;;13.52;6.55;;;7.10;99.90;;;;;;5058600;28;20175;-82
2022/05/05 01:43:37;;;;;;;15.13;6.63;;;7.00;99.90;;;;;;5036632;28;20037;-82
2022/05/05 01:46:04;;;;;;;13.70;6.20;;;7.10;99.90;;;;;;5053422;28;20048;-82
2022/05/05 01:48:30;;;;;;;14.00;6.30;;;7.30;99.90;;;;;;5035886;28;20044;-82
2022/05/05 01:50:56;;;;;;;13.43;6.63;;;7.10;99.90;;;;;;5017989;28;20037;-82
2022/05/05 01:53:22;;;;;;;14.35;6.18;;;7.10;99.90;;;;;;5041162;28;20401;-82
2022/05/05 01:55:48;;;;;;;12.52;6.28;;;7.10;99.90;;;;;;5026121;28;20045;-82
2022/05/05 01:58:14;;;;;;;17.05;6.82;;;7.10;99.90;;;;;;5050383;28;20043;-82
2022/05/05 02:00:39;;;;;;;14.57;7.00;;;7.10;99.90;;;;;;5043749;28;20044;-82
2022/05/05 02:03:12;;;;;;;14.80;6.40;;;8.10;99.90;;;;;;5046761;28;20071;-82
2022/05/05 02:05:45;;;;;;;11.73;6.18;;;7.10;99.90;;;;;;5030832;28;20036;-82
2022/05/05 02:08:12;;;;;;;13.63;6.65;;;7.10;99.90;;;;;;5046954;28;20048;-82
2022/05/05 02:10:39;;;;;;;15.32;6.57;;;7.10;99.90;;;;;;5053484;28;20033;-82
2022/05/05 02:13:06;;;;;;;17.05;6.43;;;7.10;99.90;;;;;;5041941;28;20053;-82
2022/05/05 02:15:34;;;;;;;13.10;6.28;;;7.10;99.90;;;;;;5042302;28;20040;-82
2022/05/05 02:18:11;;;;;;;13.55;6.20;;;7.10;99.90;;;;;;5036543;28;20044;-82
2022/05/05 02:20:37;;;;;;;13.50;6.80;;;7.10;99.90;;;;;;5048181;28;20040;-82
2022/05/05 02:23:04;;;;;;;15.90;6.75;;;7.00;99.90;;;;;;5042827;28;20545;-82
2022/05/05 02:25:30;;;;;;;14.15;7.10;;;7.00;99.90;;;;;;5017485;28;20089;-82
2022/05/05 02:27:56;;;;;;;15.05;7.10;;;7.60;99.90;;;;;;5039679;28;20036;-82
2022/05/05 02:30:24;;;;;;;14.32;6.15;;;7.00;99.90;;;;;;5051359;28;20275;-82
2022/05/05 02:32:51;;;;;;;13.23;6.78;;;6.90;99.90;;;;;;5048618;28;20033;-82
2022/05/05 02:35:18;;;;;;;14.57;6.70;;;6.90;99.90;;;;;;5030349;28;20658;-82
2022/05/05 02:40:28;;;;;;;16.60;6.95;;;6.80;99.90;;;;;;5049817;28;20045;-82
2022/05/05 02:42:55;;;;;;;13.57;6.75;;;6.80;99.90;;;;;;5035737;28;20040;-82
2022/05/05 02:45:21;;;;;;;12.85;6.28;;;6.80;99.90;;;;;;5026476;28;20098;-82
2022/05/05 02:47:49;;;;;;;14.60;7.00;;;7.90;99.90;;;;;;5016820;28;20747;-82
2022/05/05 02:50:16;;;;;;;14.95;6.75;;;7.40;99.90;;;;;;5019706;28;20124;-82
2022/05/05 02:52:42;;;;;;;16.10;7.15;;;6.80;99.90;;;;;;5042457;28;20044;-82
2022/05/05 02:55:08;;;;;;;17.40;6.82;;;6.80;99.90;;;;;;5020788;28;20037;-82
2022/05/05 02:57:34;;;;;;;17.98;6.95;;;6.80;99.90;;;;;;5016404;28;20036;-82
2022/05/05 03:00:00;;;;;;;13.32;6.45;;;6.80;99.90;;;;;;5029116;28;20039;-82
2022/05/05 03:02:26;;;;;;;14.70;7.32;;;6.80;99.90;;;;;;5035716;28;20643;-81
2022/05/05 03:04:52;;;;;;;17.40;7.18;;;6.80;99.90;;;;;;5050692;28;20474;-81
2022/05/05 03:07:18;;;;;;;14.45;7.50;;;6.90;99.90;;;;;;5023028;28;20064;-82
2022/05/05 03:09:44;;;;;;;14.65;7.40;;;6.80;99.90;;;;;;5043873;28;20420;-82
2022/05/05 03:12:10;;;;;;;14.65;7.20;;;7.20;99.90;;;;;;5039926;28;20140;-82
2022/05/05 03:14:37;;;;;;;12.13;6.60;;;6.80;99.90;;;;;;5028711;28;20049;-82
2022/05/05 03:17:03;;;;;;;15.68;6.35;;;6.80;99.90;;;;;;5039368;28;20390;-82
2022/05/05 03:19:29;;;;;;;15.18;6.47;;;6.80;99.90;;;;;;5052382;28;20112;-82
2022/05/05 03:21:55;;;;;;;15.55;6.85;;;7.60;99.90;;;;;;5038413;28;20124;-82
2022/05/05 03:24:21;;;;;;;13.07;6.80;;;6.80;99.90;;;;;;5017865;28;20500;-82
2022/05/05 03:26:47;;;;;;;13.52;5.90;;;6.80;99.90;;;;;;5043164;28;20041;-82
2022/05/05 03:29:13;;;;;;;15.23;6.30;;;6.90;99.90;;;;;;5041262;28;20520;-82
2022/05/05 03:31:39;;;;;;;19.95;6.80;;;6.90;99.90;;;;;;5024384;28;20036;-82
2022/05/05 03:34:06;;;;;;;12.98;6.55;;;6.90;99.90;;;;;;5027689;28;20040;-82
2022/05/05 03:36:32;;;;;;;13.60;5.90;;;7.70;99.90;;;;;;5053780;28;20028;-82
2022/05/05 03:38:58;;;;;;;15.40;6.72;;;7.00;99.90;;;;;;5029062;28;20154;-81
2022/05/05 03:41:23;;;;;;;13.25;6.43;;;7.00;99.90;;;;;;5017667;28;20647;-82
2022/05/05 03:43:49;;;;;;;13.77;6.25;;;7.00;99.90;;;;;;5040588;28;20037;-82
2022/05/05 03:46:15;;;;;;;14.77;6.40;;;7.10;99.90;;;;;;5031119;28;20089;-82
2022/05/05 03:48:41;;;;;;;12.75;6.05;;;7.10;99.90;;;;;;5033219;28;20198;-82
2022/05/05 03:51:06;;;;;;;15.90;6.72;;;7.40;99.90;;;;;;5040313;28;20124;-82
2022/05/05 03:53:33;;;;;;;15.88;5.72;;;7.40;99.90;;;;;;5023841;28;20340;-82
2022/05/05 03:55:59;;;;;;;15.57;6.72;;;7.20;99.90;;;;;;5037939;28;20474;-82
2022/05/05 03:58:26;;;;;;;17.15;7.13;;;7.20;99.90;;;;;;5028056;28;20048;-82
2022/05/05 04:00:51;;;;;;;14.32;7.22;;;7.30;99.90;;;;;;5031382;28;20108;-82
2022/05/05 04:03:32;;;;;;;13.20;6.85;;;7.00;99.90;;;;;;5063790;28;20175;-82
2022/05/05 04:05:59;;;;;;;16.55;7.30;;;7.30;99.90;;;;;;5047061;28;20040;-82
2022/05/05 04:08:25;;;;;;;14.95;6.80;;;7.30;99.90;;;;;;5038715;28;20106;-82
2022/05/05 04:10:53;;;;;;;17.38;7.55;;;7.30;99.90;;;;;;5023510;28;20053;-83
2022/05/05 04:13:19;;;;;;;16.42;8.02;;;8.00;99.90;;;;;;5042112;28;20044;-83
2022/05/05 04:15:45;;;;;;;15.60;7.53;;;7.40;99.90;;;;;;5021428;28;20118;-83
2022/05/05 04:18:11;;;;;;;15.98;8.20;;;7.60;99.90;;;;;;5052468;28;20077;-82
2022/05/05 04:20:37;;;;;;;16.60;8.45;;;7.40;99.90;;;;;;5061593;28;20072;-82
2022/05/05 04:23:03;;;;;;;15.45;8.00;;;7.60;99.90;;;;;;5040096;28;20033;-82
2022/05/05 04:25:29;;;;;;;15.27;8.20;;;7.50;99.90;;;;;;5005803;28;20092;-82
2022/05/05 04:27:55;;;;;;;15.18;7.88;;;7.90;99.90;;;;;;5031181;28;20041;-82
2022/05/05 04:30:21;;;;;;;18.77;8.48;;;7.60;99.90;;;;;;5055877;28;20040;-82
2022/05/05 04:32:47;;;;;;;14.57;8.00;;;7.60;99.90;;;;;;5040223;28;20044;-82
2022/05/05 04:35:15;;;;;;;13.18;7.78;;;7.60;99.90;;;;;;5042089;28;20218;-82
2022/05/05 04:37:41;;;;;;;16.95;8.70;;;7.60;99.90;;;;;;5049630;28;20726;-82
2022/05/05 04:40:08;;;;;;;15.07;8.68;;;8.70;99.90;;;;;;5046281;28;20036;-82
2022/05/05 04:42:34;;;;;;;17.05;8.82;;;7.70;99.90;;;;;;5045606;28;20044;-82
2022/05/05 04:45:00;;;;;;;16.40;8.65;;;8.10;99.90;;;;;;5047040;28;20045;-82
2022/05/05 04:47:26;;;;;;;15.13;8.52;;;7.70;99.90;;;;;;5040184;28;20046;-82
2022/05/05 04:49:55;;;;;;;18.00;8.65;;;7.80;99.90;;;;;;5032865;28;20041;-82
2022/05/05 04:52:21;;;;;;;19.80;9.48;;;7.80;99.90;;;;;;5049058;28;20052;-82
2022/05/05 04:54:46;;;;;;;16.58;8.40;;;7.80;99.90;;;;;;5046072;28;20045;-82
2022/05/05 04:57:12;;;;;;;16.98;9.50;;;7.90;99.90;;;;;;5025780;28;20044;-82
2022/05/05 04:59:38;;;;;;;19.05;9.30;;;7.80;99.90;;;;;;5040860;28;20859;-82
2022/05/05 05:02:04;;;;;;;19.02;8.73;;;7.90;99.90;;;;;;5029620;28;20037;-82
2022/05/05 05:04:30;;;;;;;16.80;9.18;;;7.90;99.90;;;;;;5025123;28;20048;-82
2022/05/05 05:06:56;;;;;;;17.95;9.18;;;7.90;99.90;;;;;;5038384;28;20047;-82
2022/05/05 05:09:21;;;;;;;15.90;9.07;;;7.90;99.90;;;;;;5029463;28;20040;-82
2022/05/05 05:11:47;;;;;;;17.80;9.35;;;7.90;99.90;;;;;;5023855;28;20048;-82
2022/05/05 05:14:13;;;;;;;15.15;9.25;;;8.00;99.90;;;;;;5060064;28;20050;-82
2022/05/05 05:16:38;;;;;;;16.13;8.93;;;8.00;99.90;;;;;;5038221;28;20037;-82
2022/05/05 05:19:05;;;;;;;17.02;9.05;;;8.00;99.90;;;;;;5033968;28;20068;-82
2022/05/05 05:21:31;;;;;;;17.05;8.57;;;8.10;99.90;;;;;;5037914;28;20102;-82
2022/05/05 05:23:57;;;;;;;17.30;8.43;;;8.10;99.90;;;;;;5045866;28;20037;-82
2022/05/05 05:26:23;;;;;;;17.95;8.02;;;8.30;99.90;;;;;;5055767;28;20099;-82
2022/05/05 05:28:48;;;;;;;19.15;8.40;;;8.20;99.90;;;;;;5038804;28;20072;-82
2022/05/05 05:31:16;;;;;;;15.50;8.35;;;8.20;99.90;;;;;;5028174;28;20052;-82
2022/05/05 05:33:42;;;;;;;17.48;8.27;;;8.20;99.90;;;;;;5051749;28;20387;-82
2022/05/05 05:36:08;;;;;;;17.40;8.25;;;8.30;99.90;;;;;;5030384;28;20056;-83
2022/05/05 05:38:35;;;;;;;15.43;8.35;;;8.00;99.90;;;;;;5054025;28;20036;-82
2022/05/05 05:41:01;;;;;;;15.63;8.07;;;8.30;99.90;;;;;;5042753;28;20040;-82
2022/05/05 05:43:26;;;;;;;20.15;8.10;;;8.40;99.90;;;;;;5055351;28;20033;-82
2022/05/05 05:45:52;;;;;;;14.82;7.75;;;8.40;99.90;;;;;;5042009;28;20036;-82
2022/05/05 05:48:18;;;;;;;14.23;7.97;;;8.50;99.90;;;;;;5009935;28;20048;-82
2022/05/05 05:50:44;;;;;;;14.50;7.78;;;8.50;99.90;;;;;;5036242;28;20176;-82
2022/05/05 05:53:11;;;;;;;16.88;8.18;;;8.50;99.90;;;;;;5029642;28;20045;-82
2022/05/05 05:55:36;;;;;;;15.27;8.35;;;8.60;99.90;;;;;;5048303;28;20116;-82
2022/05/05 05:58:03;;;;;;;15.95;7.32;;;8.70;99.90;;;;;;5028745;28;20128;-82
2022/05/05 06:00:30;;;;;;;17.73;8.02;;;8.70;99.90;;;;;;5061003;28;20118;-82
2022/05/05 06:05:42;;;;;;;15.88;6.72;;;8.80;99.90;;;;;;5062732;28;20414;-81
2022/05/05 06:08:07;;;;;;;15.07;6.63;;;8.90;99.90;;;;;;5019635;28;20043;-82
2022/05/05 06:10:34;;;;;;;13.90;6.72;;;8.90;99.90;;;;;;5041516;28;21364;-83
2022/05/05 06:12:59;;;;;;;14.95;6.90;;;9.00;99.90;;;;;;5036187;28;20060;-82
2022/05/05 06:15:25;;;;;;;13.90;6.85;;;9.10;99.90;;;;;;5049208;28;20037;-82
2022/05/05 06:17:52;;;;;;;17.30;7.45;;;9.10;99.90;;;;;;5041252;28;20060;-82
2022/05/05 06:20:18;;;;;;;13.40;6.80;;;9.20;99.90;;;;;;5052901;28;20083;-84
2022/05/05 06:22:44;;;;;;;19.55;7.80;;;9.20;99.90;;;;;;5057956;28;20064;-82
2022/05/05 06:25:13;;;;;;;14.02;6.47;;;9.30;99.90;;;;;;5050816;28;20040;-82
2022/05/05 06:27:40;;;;;;;15.93;7.10;;;9.50;99.90;;;;;;5045286;28;20041;-82
2022/05/05 06:30:09;;;;;;;16.90;7.40;;;9.40;99.90;;;;;;5037851;28;20067;-82
2022/05/05 06:32:35;;;;;;;16.85;7.15;;;9.50;99.90;;;;;;5047156;28;20452;-82
2022/05/05 06:35:01;;;;;;;15.43;6.70;;;9.50;99.90;;;;;;5043606;28;20056;-84
2022/05/05 06:37:26;;;;;;;16.55;6.70;;;9.60;99.90;;;;;;5020648;28;20122;-83
2022/05/05 06:39:52;;;;;;;13.57;7.30;;;9.60;99.90;;;;;;5036593;28;20086;-83
2022/05/05 06:42:18;;;;;;;16.25;7.22;;;10.50;99.90;;;;;;5046775;28;20451;-83
2022/05/05 06:44:44;;;;;;;12.73;7.05;;;9.70;99.90;;;;;;5020328;28;20040;-83
2022/05/05 06:47:11;;;;;;;17.40;7.55;;;9.80;99.90;;;;;;5037791;28;20045;-83
2022/05/05 06:49:36;;;;;;;18.35;6.50;;;9.80;99.90;;;;;;5035267;28;20041;-83
2022/05/05 06:52:03;;;;;;;20.00;7.00;;;9.90;99.90;;;;;;5019439;28;20048;-83
2022/05/05 06:54:28;;;;;;;14.20;7.13;;;10.00;99.90;;;;;;5050335;28;20045;-82
2022/05/05 06:56:54;;;;;;;15.00;6.88;;;10.00;99.90;;;;;;5036673;28;20083;-83
2022/05/05 06:59:20;;;;;;;13.35;6.45;;;10.10;99.90;;;;;;5025230;28;20119;-83
2022/05/05 07:01:52;;;;;;;15.32;6.55;;;10.20;99.90;;;;;;5051655;28;20541;-83
2022/05/05 07:07:07;;;;;;;14.98;7.85;;;10.30;99.90;;;;;;5055684;28;20075;-82
2022/05/05 07:12:18;;;;;;;17.98;7.20;;;10.50;99.90;;;;;;5040296;28;20061;-82
2022/05/05 07:14:45;;;;;;;13.68;7.18;;;10.60;99.90;;;;;;5050708;28;20056;-83
2022/05/05 07:17:12;;;;;;;15.23;7.00;;;10.70;99.90;;;;;;5046246;28;20098;-82
2022/05/05 07:19:38;;;;;;;13.48;7.05;;;10.70;99.90;;;;;;5040051;28;20067;-83
2022/05/05 07:22:05;;;;;;;14.85;7.35;;;10.80;99.90;;;;;;5049265;28;20060;-84
2022/05/05 07:24:31;;;;;;;16.20;7.55;;;10.90;99.90;;;;;;5055150;28;20098;-83
2022/05/05 07:26:58;;;;;;;17.08;7.70;;;11.00;99.90;;;;;;5042350;28;20428;-83
2022/05/05 07:29:23;;;;;;;15.63;7.28;;;11.10;99.90;;;;;;5049041;28;20053;-83
2022/05/05 07:31:49;;;;;;;17.08;7.75;;;11.10;99.90;;;;;;5038052;28;20051;-82
2022/05/05 07:34:15;;;;;;;15.73;7.38;;;11.20;99.90;;;;;;5041033;28;20076;-83
2022/05/05 07:36:42;;;;;;;15.82;7.70;;;11.30;99.90;;;;;;5056635;28;20103;-83
2022/05/05 07:39:08;;;;;;;16.77;7.80;;;11.40;99.90;;;;;;5039886;28;20063;-83
2022/05/05 07:41:34;;;;;;;17.17;7.63;;;11.40;99.90;;;;;;5030805;28;20075;-83
2022/05/05 07:44:01;;;;;;;15.75;7.10;;;11.50;99.90;;;;;;5025621;28;20083;-83
2022/05/05 07:46:27;;;;;;;15.82;7.38;;;11.60;99.90;;;;;;5037769;28;20041;-82
2022/05/05 07:48:54;;;;;;;16.35;7.53;;;11.70;99.90;;;;;;5047702;28;20040;-82
2022/05/05 07:51:20;;;;;;;17.73;7.13;;;12.00;99.90;;;;;;5048458;28;20116;-82
2022/05/05 07:56:30;;;;;;;15.63;6.97;;;11.90;99.90;;;;;;5044304;28;20045;-82
2022/05/05 07:58:56;;;;;;;15.57;7.30;;;12.00;99.90;;;;;;5032836;28;20089;-81
2022/05/05 08:01:22;;;;;;;14.30;7.18;;;12.10;99.90;;;;;;5054814;28;20037;-82
2022/05/05 08:03:48;;;;;;;17.52;7.75;;;12.20;99.90;;;;;;5050026;28;20044;-82
2022/05/05 08:06:13;;;;;;;16.05;7.68;;;12.30;99.90;;;;;;5041230;28;20190;-83
2022/05/05 08:08:39;;;;;;;13.35;7.35;;;12.40;99.90;;;;;;5033735;28;20326;-82
2022/05/05 08:11:05;;;;;;;15.82;7.32;;;12.40;99.90;;;;;;5023162;28;20080;-82
2022/05/05 08:13:35;;;;;;;16.23;7.22;;;12.40;99.90;;;;;;5037562;28;20056;-83
2022/05/05 08:16:01;;;;;;;13.95;6.97;;;12.50;99.90;;;;;;5032031;28;20040;-83
2022/05/05 08:18:27;;;;;;;17.23;7.28;;;12.60;99.90;;;;;;5063103;28;20051;-83
2022/05/05 08:20:53;;;;;;;14.40;6.78;;;12.80;99.90;;;;;;5024059;28;20041;-82
2022/05/05 08:23:19;;;;;;;15.00;7.03;;;12.90;99.90;;;;;;5033021;28;20024;-82
2022/05/05 08:28:29;;;;;;;14.43;5.03;;;13.20;99.90;;;;;;5042602;28;20064;-83
2022/05/05 08:30:56;;;;;;;13.23;5.70;;;13.30;99.90;;;;;;5041561;28;20490;-82
2022/05/05 08:33:27;;;;;;;14.63;5.45;;;13.40;99.90;;;;;;5042645;28;20075;-82
2022/05/05 08:35:57;;;;;;;15.57;6.05;;;13.50;99.90;;;;;;5040691;28;20025;-82
2022/05/05 08:38:24;;;;;;;14.00;5.60;;;13.60;99.90;;;;;;5056422;28;20537;-83
2022/05/05 08:40:50;;;;;;;15.50;5.75;;;13.70;99.90;;;;;;5043258;28;20097;-83
2022/05/05 08:43:16;;;;;;;13.40;5.18;;;13.80;99.90;;;;;;5047744;28;20439;-82
2022/05/05 08:45:45;;;;;;;10.98;4.40;;;13.90;99.90;;;;;;5023805;28;20037;-82
2022/05/05 08:48:12;;;;;;;13.52;4.32;;;14.00;99.90;;;;;;5047382;28;20041;-82
2022/05/05 08:50:46;;;;;;;12.82;5.43;;;14.10;99.90;;;;;;5031359;28;20025;-83
2022/05/05 08:53:15;;;;;;;11.30;4.50;;;14.20;99.90;;;;;;5040049;28;21295;-83
2022/05/05 08:55:45;;;;;;;12.68;4.60;;;14.20;99.90;;;;;;5057575;28;20037;-83
2022/05/05 08:58:10;;;;;;;13.02;4.50;;;14.40;99.90;;;;;;5045977;28;20401;-83
2022/05/05 09:00:36;;;;;;;12.55;4.20;;;14.50;99.90;;;;;;5044274;28;20583;-82
2022/05/05 09:03:04;;;;;;;11.05;4.45;;;14.60;99.90;;;;;;5030544;28;20607;-82
2022/05/05 09:05:42;;;;;;;12.55;4.43;;;14.70;99.90;;;;;;5030827;28;20107;-83
2022/05/05 09:08:11;;;;;;;10.30;4.15;;;14.80;99.90;;;;;;5059137;28;20093;-82
2022/05/05 09:10:48;;;;;;;14.70;4.10;;;14.90;99.90;;;;;;5041401;28;20516;-83
2022/05/05 09:13:24;;;;;;;10.43;3.90;;;15.10;99.90;;;;;;5031097;28;20057;-82
2022/05/05 09:15:51;;;;;;;10.50;4.10;;;15.20;99.90;;;;;;5044259;28;20091;-82
2022/05/05 09:18:19;;;;;;;13.43;3.80;;;15.20;99.90;;;;;;5035582;28;20032;-83
2022/05/05 09:20:46;;;;;;;11.80;4.78;;;15.40;99.90;;;;;;5046910;28;20104;-83
2022/05/05 09:23:28;;;;;;;14.00;4.57;;;15.40;99.90;;;;;;5058016;28;20067;-83
2022/05/05 09:25:54;;;;;;;14.43;3.88;;;15.70;99.90;;;;;;5057647;28;20094;-82
2022/05/05 09:28:22;;;;;;;12.93;4.18;;;15.80;99.90;;;;;;5047208;28;20120;-84
2022/05/05 09:30:52;;;;;;;10.55;3.67;;;16.00;99.90;;;;;;5045962;28;20120;-82
2022/05/05 09:33:33;;;;;;;11.05;4.18;;;16.10;99.90;;;;;;5032889;28;20140;-83
2022/05/05 09:36:22;;;;;;;11.88;4.30;;;16.20;99.90;;;;;;5054040;28;20461;-83
2022/05/05 09:38:51;;;;;;;13.93;4.28;;;16.30;99.90;;;;;;5054639;28;20028;-84
2022/05/05 09:41:22;;;;;;;11.80;4.22;;;16.40;99.90;;;;;;5064020;28;20500;-83
2022/05/05 09:43:48;;;;;;;9.15;3.80;;;16.40;99.90;;;;;;5049558;28;20076;-83
2022/05/05 09:46:22;;;;;;;10.95;4.30;;;16.50;99.90;;;;;;5041927;28;21329;-83
2022/05/05 09:48:52;;;;;;;12.85;4.35;;;16.70;99.90;;;;;;5055614;28;20038;-83
2022/05/05 09:51:19;;;;;;;9.20;3.95;;;16.70;99.90;;;;;;5050323;28;20050;-83
2022/05/05 09:59:29;;;;;;;10.05;4.20;;;17.20;99.90;;;;;;5041519;28;20508;-83
2022/05/05 10:02:04;;;;;;;10.63;4.70;;;17.30;99.90;;;;;;5021318;28;20170;-84
2022/05/05 10:04:35;;;;;;;11.77;4.65;;;17.30;99.90;;;;;;5057308;28;20421;-84
2022/05/05 10:07:02;;;;;;;11.35;4.78;;;17.30;99.90;;;;;;5036498;28;20044;-83
2022/05/05 10:09:29;;;;;;;10.95;4.50;;;17.40;99.90;;;;;;5050876;28;20493;-84
2022/05/05 10:11:55;;;;;;;11.32;5.15;;;17.60;99.90;;;;;;5022251;28;20129;-84
2022/05/05 10:14:22;;;;;;;10.60;4.43;;;17.70;99.90;;;;;;5021421;28;20106;-84
2022/05/05 10:16:49;;;;;;;9.93;4.53;;;17.80;99.90;;;;;;5044175;28;20109;-83
2022/05/05 10:19:15;;;;;;;11.73;4.93;;;17.80;99.90;;;;;;5027499;28;20563;-84
2022/05/05 10:22:03;;;;;;;9.93;4.55;;;17.70;99.90;;;;;;5038486;28;20037;-84
2022/05/05 10:24:31;;;;;;;11.13;4.20;;;17.50;99.90;;;;;;5049244;28;20041;-84
2022/05/05 10:26:59;;;;;;;12.30;4.50;;;17.30;99.90;;;;;;5041986;28;20076;-85
2022/05/05 10:29:31;;;;;;;11.20;5.05;;;17.30;99.90;;;;;;5040883;28;20044;-85
2022/05/05 10:32:16;;;;;;;14.45;5.47;;;17.50;99.90;;;;;;5058228;28;20431;-85
2022/05/05 10:34:45;;;;;;;9.70;4.75;;;17.60;99.90;;;;;;5040887;28;20032;-84
2022/05/05 10:37:13;;;;;;;10.25;4.80;;;17.60;99.90;;;;;;5054146;28;20036;-84
2022/05/05 10:40:03;;;;;;;12.98;5.45;;;17.60;99.90;;;;;;5029251;28;20101;-84
2022/05/05 10:42:45;;;;;;;12.60;5.40;;;17.60;99.90;;;;;;5055766;28;20032;-84
2022/05/05 10:45:14;;;;;;;11.55;5.30;;;17.80;99.90;;;;;;5032381;28;20037;-84
2022/05/05 10:47:54;;;;;;;13.30;5.82;;;17.80;99.90;;;;;;5038213;28;20044;-84
2022/05/05 10:50:42;;;;;;;11.77;4.93;;;17.90;99.90;;;;;;5059175;28;20598;-84
2022/05/05 10:53:24;;;;;;;12.40;5.38;;;18.10;99.90;;;;;;5049819;28;20033;-84
2022/05/05 10:55:50;;;;;;;12.73;5.60;;;18.00;99.90;;;;;;5036411;28;20047;-84
2022/05/05 10:58:53;;;;;;;12.65;5.50;;;18.10;99.90;;;;;;5023581;28;20032;-84
2022/05/05 11:01:19;;;;;;;10.75;5.03;;;18.20;99.90;;;;;;5057095;28;20138;-84
2022/05/05 11:04:05;;;;;;;12.55;5.03;;;18.10;99.90;;;;;;5043380;28;20517;-84
2022/05/05 11:06:32;;;;;;;11.75;4.80;;;18.00;99.90;;;;;;5046913;28;20048;-84
2022/05/05 11:08:58;;;;;;;10.57;5.00;;;18.00;99.90;;;;;;5040125;28;20040;-84
2022/05/05 11:11:40;;;;;;;12.02;5.05;;;18.10;99.90;;;;;;5040901;28;20041;-84
2022/05/05 11:23:09;;;;;;;11.55;5.18;;;18.90;99.90;;;;;;5045388;28;20048;-83
2022/05/05 11:25:41;;;;;;;12.88;5.40;;;19.00;99.90;;;;;;5045897;28;20504;-83
2022/05/05 11:28:09;;;;;;;13.70;5.28;;;19.20;99.90;;;;;;5040262;28;20425;-83
2022/05/05 11:30:41;;;;;;;11.75;5.30;;;19.30;99.90;;;;;;5023184;28;20043;-83
2022/05/05 11:33:07;;;;;;;12.27;5.50;;;19.40;99.90;;;;;;5037370;28;20469;-83
2022/05/05 11:35:33;;;;;;;10.50;5.57;;;19.50;99.90;;;;;;5040033;28;20044;-83
2022/05/05 11:37:59;;;;;;;10.15;4.85;;;19.70;99.90;;;;;;5021396;28;20029;-83
2022/05/05 11:40:25;;;;;;;11.20;5.55;;;19.80;99.90;;;;;;5023122;28;20181;-84
2022/05/05 11:45:37;;;;;;;13.95;5.70;;;19.70;99.90;;;;;;5023010;28;20041;-83
2022/05/05 11:48:17;;;;;;;11.45;5.30;;;19.90;99.90;;;;;;5031814;28;20044;-84
2022/05/05 11:50:47;;;;;;;11.95;5.50;;;19.60;99.90;;;;;;5028336;28;20032;-84
2022/05/05 11:53:17;;;;;;;11.27;5.25;;;19.50;99.90;;;;;;5035569;28;20045;-84
2022/05/05 11:55:48;;;;;;;12.00;5.65;;;19.20;99.90;;;;;;5036122;28;20101;-84
2022/05/05 12:01:36;;;;;;;12.48;5.38;;;19.10;99.90;;;;;;5027986;28;20044;-84
2022/05/05 12:04:01;;;;;;;11.95;5.70;;;19.30;99.90;;;;;;5041789;28;20460;-84
2022/05/05 12:06:28;;;;;;;11.27;5.45;;;19.40;99.90;;;;;;5041173;28;20037;-83
2022/05/05 12:08:56;;;;;;;10.10;5.07;;;19.50;99.90;;;;;;5035466;28;20591;-83
2022/05/05 12:11:21;;;;;;;13.15;6.53;;;19.60;99.90;;;;;;5039276;28;20091;-83
2022/05/05 12:13:49;;;;;;;12.80;5.63;;;19.70;99.90;;;;;;5056415;28;20057;-82
2022/05/05 12:16:18;;;;;;;12.75;5.18;;;19.80;99.90;;;;;;5039852;28;20505;-83
2022/05/05 12:18:51;;;;;;;10.27;5.00;;;20.10;99.90;;;;;;5027898;28;20051;-83
2022/05/05 12:21:21;;;;;;;11.50;5.20;;;20.40;99.90;;;;;;5046767;28;20443;-83
2022/05/05 12:23:59;;;;;;;10.35;4.75;;;20.50;99.90;;;;;;5022880;28;20115;-83
2022/05/05 12:26:33;;;;;;;11.45;5.90;;;20.40;99.80;;;;;;5039357;28;20302;-83
2022/05/05 12:28:59;;;;;;;12.00;6.10;;;20.30;99.10;;;;;;5056479;28;20175;-84
2022/05/05 12:31:28;;;;;;;11.70;6.05;;;20.20;99.10;;;;;;5070538;28;20033;-83
2022/05/05 12:33:54;;;;;;;13.32;5.97;;;20.20;99.10;;;;;;5045621;28;20425;-83
2022/05/05 12:36:27;;;;;;;11.52;6.28;;;20.10;98.50;;;;;;5025509;28;20043;-83
2022/05/05 12:39:09;;;;;;;13.52;6.00;;;19.90;98.30;;;;;;5041542;28;20084;-82
2022/05/05 12:41:34;;;;;;;15.63;6.38;;;19.80;99.30;;;;;;5040441;28;20036;-83
2022/05/05 12:44:12;;;;;;;14.95;6.90;;;19.70;99.70;;;;;;5024519;28;20141;-83
2022/05/05 12:47:02;;;;;;;13.00;6.47;;;19.80;99.90;;;;;;5041824;28;20508;-84
2022/05/05 12:49:39;;;;;;;14.93;6.88;;;19.80;99.60;;;;;;5054077;28;20623;-84
2022/05/05 12:59:36;;;;;;;11.88;5.95;;;19.80;99.90;;;;;;5038479;28;20048;-82
2022/05/05 13:00:21;;;;;;;12.73;6.88;;;20.00;99.90;;;;;;5027362;28;20037;-84
2022/05/05 13:02:47;;;;;;;12.02;6.57;;;19.90;99.90;;;;;;5028162;28;20091;-84
2022/05/05 13:05:14;;;;;;;12.05;6.38;;;19.90;99.20;;;;;;5037361;28;20045;-83
2022/05/05 13:07:40;;;;;;;15.10;6.95;;;20.10;99.90;;;;;;5041269;28;20098;-85
2022/05/05 13:10:07;;;;;;;12.40;6.35;;;20.20;99.70;;;;;;5028519;28;20041;-85
2022/05/05 13:12:32;;;;;;;12.65;6.43;;;20.20;99.90;;;;;;5020487;28;20122;-85
2022/05/05 13:14:58;;;;;;;12.98;6.15;;;20.40;99.90;;;;;;5027506;28;20521;-84
2022/05/05 13:17:24;;;;;;;11.85;6.57;;;20.50;99.90;;;;;;5036462;28;20055;-84
2022/05/05 13:19:49;;;;;;;11.25;5.90;;;20.70;99.90;;;;;;5055715;28;20033;-83
2022/05/05 13:22:15;;;;;;;12.35;6.05;;;20.80;99.90;;;;;;5027994;28;20094;-84
2022/05/05 13:24:41;;;;;;;11.77;6.50;;;21.00;99.90;;;;;;5035339;28;20041;-84
2022/05/05 13:27:06;;;;;;;11.70;6.25;;;21.10;99.90;;;;;;5039905;28;20496;-84
2022/05/05 13:29:32;;;;;;;12.80;6.15;;;21.10;99.40;;;;;;5049370;28;20506;-84
2022/05/05 13:31:58;;;;;;;11.98;6.43;;;21.00;99.10;;;;;;5031609;28;20123;-84
2022/05/05 13:34:25;;;;;;;11.93;6.13;;;21.00;97.70;;;;;;5027958;28;20116;-84
2022/05/05 13:36:51;;;;;;;14.60;6.55;;;20.90;97.80;;;;;;5042929;28;20044;-84